»·PEaware :: N808PF KTUS-KSEZ

N808PF :: KTUS-KSEZ

FLIGHT INFORMATION

Flight Status: Arrived
Operator: Privately registered:
United States
More flights under this callsign
Pilot: Ben L. (6391)
Aircraft: SOCATA TBM-900
(TBM9)
More flights by this aircraft type
Origin: KTUS Tucson Intl
United States
Destination: KSEZ Sedona
United States
More flights between these airports :: More routes between these airports
Route: +BURRO4 BBALL PXR V327 OATES
File this flight plan on PilotEdge
Remarks: twitch.tv / planeben
Altitude:
(Current/Filed)
26,000ft
Speed:
(Current/Filed)
320kts
Departed: 13-May-20 10:59 AM
Arrived: 13-May-20 11:52 AM
Distance/Time
Traveled:
169nm/0:53
Distance/Time
To Go:
Arrived

Flight Plot

Page will automatically refresh every two minutes.

Flight plan parsing failed; only flown route is shown


Map Options




Map Legend


Flown Route
Filed Route
Departure Airport
Arrival Airport
Navaid (VOR, NDB)
Fix

Horizontal Profiles

Position Reports

Time Latitude Longitude Heading Altitude Ground
Speed
13-May-20 10:42 32.124023 -110.943947 134 2579ft 0kts
13-May-20 10:43 32.124023 -110.943947 134 2579ft 0kts
13-May-20 10:44 32.124023 -110.943947 134 2579ft 0kts
13-May-20 10:45 32.124023 -110.943947 134 2579ft 0kts
13-May-20 10:46 32.124023 -110.943947 134 2579ft 0kts
13-May-20 10:47 32.124023 -110.943947 134 2579ft 0kts
13-May-20 10:48 32.124023 -110.943947 134 2579ft 0kts
13-May-20 10:49 32.124023 -110.943947 134 2579ft 0kts
13-May-20 10:50 32.124023 -110.943947 134 2579ft 0kts
13-May-20 10:51 32.124023 -110.943947 134 2579ft 0kts
13-May-20 10:52 32.123827 -110.943940 214 2580ft 0kts
13-May-20 10:53 32.123467 -110.944780 280 2579ft 2kts
13-May-20 10:54 32.125368 -110.947808 313 2569ft 18kts
13-May-20 10:55 32.125218 -110.948175 199 2569ft 0kts
13-May-20 10:56 32.124931 -110.948440 267 2569ft 0kts
13-May-20 10:57 32.124838 -110.949273 207 2569ft 6kts
13-May-20 10:58 32.110294 -110.932165 134 3558ft 127kts
13-May-20 10:59 32.085207 -110.902381 139 6265ft 134kts
13-May-20 11:01 32.057228 -110.870290 139 8578ft 155kts
13-May-20 11:02 32.024010 -110.876429 223 11282ft 141kts
13-May-20 11:03 31.996415 -110.908077 225 13901ft 143kts
13-May-20 11:04 31.968075 -110.941256 226 16232ft 147kts
13-May-20 11:05 31.975664 -110.985960 292 18333ft 158kts
13-May-20 11:06 31.997722 -111.031181 293 20235ft 162kts
13-May-20 11:07 32.020359 -111.077232 293 21960ft 164kts
13-May-20 11:08 32.043335 -111.124030 293 23522ft 167kts
13-May-20 11:09 32.066673 -111.171630 293 24911ft 170kts
13-May-20 11:10 32.105304 -111.205250 335 26009ft 202kts
13-May-20 11:11 32.166149 -111.225176 337 26007ft 245kts
13-May-20 11:12 32.234563 -111.247571 337 25996ft 262kts
13-May-20 11:13 32.307672 -111.271564 338 25996ft 282kts
13-May-20 11:14 32.384120 -111.296689 338 25992ft 289kts
13-May-20 11:15 32.462053 -111.322349 338 25991ft 291kts
13-May-20 11:16 32.539925 -111.348036 338 25991ft 292kts
13-May-20 11:17 32.618244 -111.373916 338 25991ft 292kts
13-May-20 11:18 32.696618 -111.399865 338 25989ft 292kts
13-May-20 11:18 32.761790 -111.421477 338 25986ft 292kts
13-May-20 11:19 32.840113 -111.447493 338 25978ft 292kts
13-May-20 11:21 32.931527 -111.477920 338 25967ft 292kts
13-May-20 11:21 32.989523 -111.513583 313 25967ft 279kts
13-May-20 11:22 33.048451 -111.573886 313 25963ft 279kts
13-May-20 11:23 33.107166 -111.634082 312 25960ft 278kts
13-May-20 11:24 33.165349 -111.693860 312 25967ft 278kts
13-May-20 11:25 33.224008 -111.754221 312 25964ft 278kts
13-May-20 11:26 33.282548 -111.814567 312 25967ft 278kts
13-May-20 11:27 33.341593 -111.875549 312 25955ft 278kts
13-May-20 11:28 33.400353 -111.936348 312 25944ft 278kts
13-May-20 11:29 33.476265 -111.960892 4 25940ft 311kts
13-May-20 11:30 33.561173 -111.940898 4 25958ft 311kts
13-May-20 11:31 33.646077 -111.921414 4 25967ft 311kts
13-May-20 11:32 33.731039 -111.901892 4 25967ft 311kts
13-May-20 11:33 33.816061 -111.882315 4 25968ft 311kts
13-May-20 11:34 33.901028 -111.862712 4 25968ft 311kts
13-May-20 11:35 33.985934 -111.843095 4 25816ft 317kts
13-May-20 11:36 34.076902 -111.822062 5 24365ft 343kts
13-May-20 11:37 34.171928 -111.799992 5 22720ft 353kts
13-May-20 11:38 34.269607 -111.784962 0 20816ft 354kts
13-May-20 11:39 34.366513 -111.772830 1 18915ft 341kts
13-May-20 11:40 34.454432 -111.761791 1 16996ft 305kts
13-May-20 11:41 34.536965 -111.751419 1 15095ft 295kts
13-May-20 11:42 34.618008 -111.740959 5 13196ft 293kts
13-May-20 11:43 34.698067 -111.730917 2 11300ft 280kts
13-May-20 11:44 34.769463 -111.722706 1 9374ft 236kts
13-May-20 11:45 34.828973 -111.714957 7 8049ft 194kts
13-May-20 11:46 34.874785 -111.703774 14 8021ft 170kts
13-May-20 11:47 34.919034 -111.697392 309 7520ft 132kts
13-May-20 11:48 34.902679 -111.724337 210 6992ft 111kts
13-May-20 11:49 34.879895 -111.748771 221 5796ft 108kts
13-May-20 11:50 34.863370 -111.770034 221 5289ft 83kts
13-May-20 11:51 34.851566 -111.784478 38 4823ft 0kts
13-May-20 11:52 34.851566 -111.784479 38 4823ft 0kts

Navigation Log

Ident Type
Flight plan parsing failed, navigation log unavailable